createdAt,value
2019-04-29T00:02:39.624Z,3.81
2019-04-29T00:07:49.997Z,4.15
2019-04-29T00:12:49.174Z,4.56
2019-04-29T00:17:59.769Z,5.01
2019-04-29T00:22:58.882Z,5.58
2019-04-29T00:28:18.725Z,3.39
2019-04-29T00:33:18.265Z,3.16
2019-04-29T00:38:34.092Z,4.54
2019-04-29T00:43:36.869Z,4.47
2019-04-29T00:48:48.545Z,3.77
2019-04-29T00:53:37.450Z,3.09
2019-04-29T00:59:02.165Z,4.18
2019-04-29T01:03:50.520Z,4.45
2019-04-29T01:09:09.149Z,4.59
2019-04-29T01:14:08.740Z,5.48
2019-04-29T01:19:30.877Z,4.46
2019-04-29T01:24:19.240Z,4.07
2019-04-29T01:29:40.432Z,3.76
2019-04-29T01:34:28.822Z,6.16
2019-04-29T01:39:44.192Z,5.48
2019-04-29T01:44:42.521Z,6.29
2019-04-29T01:50:03.856Z,4.88
2019-04-29T01:54:54.670Z,5.29
2019-04-29T02:00:06.421Z,4.69
2019-04-29T02:04:54.781Z,5.50
2019-04-29T02:10:10.005Z,5.54
2019-04-29T02:15:14.381Z,5.88
2019-04-29T02:20:16.859Z,6.80
2019-04-29T02:25:14.859Z,6.55
2019-04-29T02:30:32.935Z,4.97
2019-04-29T02:35:38.000Z,7.36
2019-04-29T02:40:36.345Z,5.79
2019-04-29T02:45:45.681Z,7.32
2019-04-29T02:51:06.978Z,6.50
2019-04-29T02:55:55.431Z,8.92
2019-04-29T03:01:16.884Z,7.33
2019-04-29T03:06:05.353Z,7.06
2019-04-29T03:11:26.637Z,6.95
2019-04-29T03:16:14.988Z,8.22
2019-04-29T03:21:36.833Z,10.08
2019-04-29T03:26:25.145Z,7.35
2019-04-29T03:31:39.308Z,8.92
2019-04-29T03:36:35.941Z,7.97
2019-04-29T03:41:57.897Z,8.08
2019-04-29T03:46:46.279Z,7.94
2019-04-29T03:52:04.444Z,6.81
2019-04-29T03:57:03.274Z,8.67
2019-04-29T04:02:21.231Z,7.19
2019-04-29T04:07:19.545Z,10.33
2019-04-29T04:12:35.978Z,7.40
2019-04-29T04:17:34.403Z,7.62
2019-04-29T04:22:52.900Z,7.81
2019-04-29T04:27:51.505Z,10.36
2019-04-29T04:33:00.003Z,8.49
2019-04-29T04:38:10.628Z,7.70
2019-04-29T04:43:12.095Z,7.81
2019-04-29T04:48:16.843Z,7.09
2019-04-29T04:53:18.795Z,7.88
2019-04-29T04:58:17.222Z,8.45
2019-04-29T05:03:32.592Z,7.53
2019-04-29T05:08:31.092Z,9.92
2019-04-29T05:13:46.754Z,9.79
2019-04-29T05:18:45.106Z,6.51
2019-04-29T05:24:12.563Z,6.76
2019-04-29T05:29:00.929Z,8.97
2019-04-29T05:34:09.671Z,7.55
2019-04-29T05:39:25.595Z,8.17
2019-04-29T05:44:30.601Z,6.85
2019-04-29T05:49:30.408Z,6.52
2019-04-29T05:54:50.863Z,8.91
2019-04-29T05:59:43.377Z,7.05
2019-04-29T06:04:48.155Z,6.92
2019-04-29T06:09:51.683Z,6.32
2019-04-29T06:14:54.194Z,6.24
2019-04-29T06:19:59.967Z,7.89
2019-04-29T06:30:03.145Z,8.65
2019-04-29T06:35:10.588Z,8.03
2019-04-29T06:40:04.918Z,8.93
2019-04-29T06:45:23.713Z,9.06
2019-04-29T06:50:22.139Z,8.79
2019-04-29T06:55:30.585Z,10.96
2019-04-29T07:00:55.747Z,11.18
2019-04-29T07:05:51.615Z,11.95
2019-04-29T07:10:48.476Z,10.68
2019-04-29T07:16:10.165Z,9.07
2019-04-29T07:20:59.100Z,8.12
2019-04-29T07:26:16.296Z,8.77
2019-04-29T07:31:15.253Z,7.88
2019-04-29T07:36:34.064Z,7.43
2019-04-29T07:41:37.213Z,7.75
2019-04-29T07:46:55.208Z,7.68
2019-04-29T07:51:45.324Z,7.95
2019-04-29T07:56:54.515Z,7.20
2019-04-29T08:02:03.425Z,6.85
2019-04-29T08:07:12.685Z,7.49
2019-04-29T08:12:22.028Z,20.83
2019-04-29T08:17:31.297Z,6.93
2019-04-29T08:22:49.858Z,5.93
2019-04-29T08:27:52.300Z,7.51
2019-04-29T08:32:51.879Z,7.09
2019-04-29T08:38:05.305Z,6.17
2019-04-29T08:43:04.140Z,7.04
2019-04-29T08:48:13.266Z,8.18
2019-04-29T08:53:23.569Z,6.28
2019-04-29T08:58:22.788Z,6.67
2019-04-29T09:03:40.064Z,6.90
2019-04-29T09:08:54.092Z,6.92
2019-04-29T09:13:49.003Z,7.53
2019-04-29T09:18:58.505Z,7.81
2019-04-29T09:24:09.415Z,6.42
2019-04-29T09:29:08.740Z,7.42
2019-04-29T09:34:19.861Z,5.77
2019-04-29T09:39:26.596Z,6.34
2019-04-29T09:44:39.826Z,6.42
2019-04-29T09:49:44.732Z,8.24
2019-04-29T09:54:53.726Z,5.87
2019-04-29T10:00:05.231Z,7.05
2019-04-29T10:05:11.803Z,8.10
2019-04-29T10:10:21.108Z,6.39
2019-04-29T10:15:30.126Z,6.39
2019-04-29T10:20:39.231Z,6.73
2019-04-29T10:25:48.235Z,5.38
2019-04-29T10:30:57.452Z,5.98
2019-04-29T10:36:06.553Z,6.40
2019-04-29T10:41:15.850Z,7.52
2019-04-29T10:46:25.006Z,5.84
2019-04-29T10:51:34.297Z,5.22
2019-04-29T10:56:43.359Z,6.35
2019-04-29T11:02:01.162Z,6.71
2019-04-29T11:07:13.154Z,6.19
2019-04-29T11:12:08.881Z,4.82
2019-04-29T11:17:18.093Z,4.21
2019-04-29T11:22:27.422Z,5.52
2019-04-29T11:27:36.503Z,5.05
2019-04-29T11:32:45.426Z,6.79
2019-04-29T11:37:56.133Z,4.74
2019-04-29T11:43:03.365Z,3.32
2019-04-29T11:48:12.622Z,4.90
2019-04-29T11:53:21.869Z,4.92
2019-04-29T11:58:30.928Z,4.32
2019-04-29T12:03:41.153Z,4.34
2019-04-29T12:08:40.215Z,3.80
2019-04-29T12:13:49.085Z,3.50
2019-04-29T12:18:58.335Z,8.94
2019-04-29T12:24:07.090Z,4.15
2019-04-29T12:30:15.594Z,4.49
2019-04-29T12:35:24.845Z,4.10
2019-04-29T12:40:34.169Z,4.21
2019-04-29T12:45:43.622Z,3.75
2019-04-29T12:50:57.322Z,4.51
2019-04-29T12:56:01.821Z,3.39
2019-04-29T13:01:12.193Z,4.41
2019-04-29T13:06:23.923Z,4.14
2019-04-29T13:11:36.076Z,4.57
2019-04-29T13:16:25.198Z,4.43
2019-04-29T13:21:34.360Z,3.22
2019-04-29T13:26:43.910Z,4.06
2019-04-29T13:31:52.992Z,4.73
2019-04-29T13:37:07.261Z,4.98
2019-04-29T13:42:15.323Z,4.59
2019-04-29T13:47:28.487Z,4.67
2019-04-29T13:52:20.125Z,4.46
2019-04-29T13:57:29.414Z,3.81
2019-04-29T14:02:37.272Z,4.64
2019-04-29T14:07:48.667Z,4.01
2019-04-29T14:13:05.417Z,4.29
2019-04-29T14:18:06.780Z,4.49
2019-04-29T14:23:12.407Z,4.72
2019-04-29T14:28:24.109Z,3.88
2019-04-29T14:33:28.811Z,3.29
2019-04-29T14:38:40.726Z,4.64
2019-04-29T14:43:54.497Z,3.70
2019-04-29T14:48:42.719Z,5.06
2019-04-29T14:53:56.143Z,3.61
2019-04-29T14:59:06.599Z,4.28
2019-04-29T15:04:17.377Z,4.12
2019-04-29T15:09:25.136Z,5.93
2019-04-29T15:14:25.474Z,5.51
2019-04-29T15:19:32.756Z,4.84
2019-04-29T15:24:43.082Z,4.13
2019-04-29T15:29:42.129Z,5.12
2019-04-29T15:34:51.086Z,4.77
2019-04-29T15:40:00.688Z,6.37
2019-04-29T15:45:08.994Z,6.84
2019-04-29T15:50:19.325Z,4.91
2019-04-29T15:55:26.925Z,6.50
2019-04-29T16:00:37.760Z,5.98
2019-04-29T16:06:04.479Z,5.45
2019-04-29T16:10:57.999Z,5.60
2019-04-29T16:16:01.807Z,6.62
2019-04-29T16:21:11.818Z,4.64
2019-04-29T16:26:11.950Z,6.02
2019-04-29T16:31:12.221Z,5.95
2019-04-29T16:36:20.127Z,6.20
2019-04-29T16:41:29.226Z,6.35
2019-04-29T16:46:37.771Z,7.34
2019-04-29T16:51:47.773Z,6.75
2019-04-29T16:56:54.156Z,6.21
2019-04-29T17:02:03.627Z,5.16
2019-04-29T17:07:14.009Z,6.71
2019-04-29T17:12:21.136Z,5.87
2019-04-29T17:17:30.558Z,7.15
2019-04-29T17:22:43.244Z,4.95
2019-04-29T17:27:50.941Z,6.45
2019-04-29T17:32:50.666Z,7.64
2019-04-29T17:38:05.512Z,5.61
2019-04-29T17:43:05.041Z,4.75
2019-04-29T17:48:13.161Z,4.62
2019-04-29T17:53:24.870Z,4.38
2019-04-29T17:58:31.926Z,5.43
2019-04-29T18:03:42.714Z,5.26
2019-04-29T18:08:49.951Z,6.09
2019-04-29T18:13:59.335Z,7.18
2019-04-29T18:19:09.864Z,8.35
2019-04-29T18:24:09.091Z,6.37
2019-04-29T18:29:18.173Z,6.83
2019-04-29T18:34:29.323Z,7.90
2019-04-29T18:39:36.234Z,7.38
2019-04-29T18:44:54.917Z,7.32
2019-04-29T18:49:53.969Z,7.79
2019-04-29T18:55:02.024Z,7.34
2019-04-29T19:00:12.708Z,7.34
2019-04-29T19:05:20.052Z,7.27
2019-04-29T19:10:34.442Z,7.55
2019-04-29T19:15:39.940Z,6.44
2019-04-29T19:20:52.479Z,8.12
2019-04-29T19:25:56.907Z,6.72
2019-04-29T19:31:09.375Z,7.50
2019-04-29T19:36:18.445Z,7.03
2019-04-29T19:41:25.635Z,7.73
2019-04-29T19:46:39.734Z,8.23
2019-04-29T19:51:43.531Z,8.44
2019-04-29T19:56:55.641Z,7.89
2019-04-29T20:02:05.339Z,8.86
2019-04-29T20:07:10.070Z,9.12
2019-04-29T20:12:17.590Z,8.84
2019-04-29T20:17:27.112Z,8.75
2019-04-29T20:22:37.028Z,9.11
2019-04-29T20:27:43.423Z,8.67
2019-04-29T20:32:52.025Z,9.72
2019-04-29T20:37:55.358Z,10.02
2019-04-29T20:42:59.573Z,10.28
2019-04-29T20:48:11.101Z,11.19
2019-04-29T20:53:17.386Z,11.89
2019-04-29T20:58:31.340Z,13.04
2019-04-29T21:03:36.358Z,12.55
2019-04-29T21:13:56.075Z,14.07
2019-04-29T21:19:08.485Z,15.24
2019-04-29T21:24:06.448Z,14.06
2019-04-29T21:29:15.856Z,14.26
2019-04-29T21:34:21.002Z,15.01
2019-04-29T21:39:32.384Z,15.38
2019-04-29T21:44:45.997Z,14.95
2019-04-29T21:49:45.662Z,15.80
2019-04-29T21:54:54.584Z,15.71
2019-04-29T22:00:02.607Z,16.98
2019-04-29T22:05:14.832Z,16.17
2019-04-29T22:10:25.209Z,15.79
2019-04-29T22:15:32.848Z,16.06
2019-04-29T22:20:41.973Z,16.00
2019-04-29T22:25:47.332Z,16.11
2019-04-29T22:30:56.224Z,14.67
2019-04-29T22:36:05.322Z,15.90
2019-04-29T22:41:16.826Z,15.51
2019-04-29T22:46:22.073Z,16.43
2019-04-29T22:51:31.123Z,15.31
2019-04-29T22:56:52.141Z,15.61
2019-04-29T23:02:57.693Z,17.52
2019-04-29T23:08:05.142Z,16.20
2019-04-29T23:13:12.890Z,16.38
2019-04-29T23:18:26.686Z,16.31
2019-04-29T23:23:22.065Z,16.36
2019-04-29T23:28:30.567Z,16.79
2019-04-29T23:33:41.989Z,17.39
2019-04-29T23:38:42.778Z,18.07
2019-04-29T23:43:49.531Z,17.78
2019-04-29T23:49:03.305Z,17.76
2019-04-29T23:54:08.668Z,18.04
2019-04-29T23:59:18.333Z,17.87
